createdAt,value
2023-03-19T00:00:32.141Z,18.08
2023-03-19T00:02:59.124Z,14.35
2023-03-19T00:05:26.040Z,16.58
2023-03-19T00:07:52.783Z,14.82
2023-03-19T00:10:19.488Z,18.98
2023-03-19T00:12:46.538Z,17.05
2023-03-19T00:15:14.682Z,13.63
2023-03-19T00:17:43.126Z,14.73
2023-03-19T00:20:11.795Z,16.77
2023-03-19T00:22:39.733Z,14.55
2023-03-19T00:25:08.217Z,17.73
2023-03-19T00:27:35.500Z,20.05
2023-03-19T00:30:02.614Z,19.25
2023-03-19T00:32:30.697Z,16.02
2023-03-19T00:34:57.508Z,18.67
2023-03-19T00:37:24.278Z,18.33
2023-03-19T00:39:50.955Z,16.60
2023-03-19T00:42:18.277Z,15.95
2023-03-19T00:44:45.929Z,15.88
2023-03-19T00:47:13.420Z,15.70
2023-03-19T00:49:40.297Z,16.27
2023-03-19T00:52:07.945Z,17.20
2023-03-19T00:54:34.767Z,16.80
2023-03-19T00:57:02.500Z,14.85
2023-03-19T00:59:29.925Z,17.10
2023-03-19T01:01:56.786Z,16.88
2023-03-19T01:04:23.632Z,18.42
2023-03-19T01:06:50.529Z,15.65
2023-03-19T01:09:17.528Z,16.70
2023-03-19T01:11:44.391Z,18.48
2023-03-19T01:14:11.781Z,16.52
2023-03-19T01:16:38.744Z,16.42
2023-03-19T01:19:06.189Z,17.38
2023-03-19T01:21:34.120Z,14.52
2023-03-19T01:24:01.111Z,14.38
2023-03-19T01:26:28.881Z,16.35
2023-03-19T01:29:04.290Z,17.73
2023-03-19T01:31:31.268Z,15.23
2023-03-19T01:34:24.280Z,16.40
2023-03-19T01:36:55.319Z,15.65
2023-03-19T01:39:28.876Z,14.07
2023-03-19T01:42:00.695Z,17.33
2023-03-19T01:44:37.293Z,17.15
2023-03-19T01:47:38.381Z,13.35
2023-03-19T01:50:28.869Z,15.93
2023-03-19T01:53:27.941Z,16.05
2023-03-19T01:56:18.772Z,18.75
2023-03-19T01:59:01.331Z,16.15
2023-03-19T02:02:13.232Z,15.43
2023-03-19T02:04:46.989Z,15.38
2023-03-19T02:07:15.742Z,16.60
2023-03-19T02:09:42.986Z,14.88
2023-03-19T02:12:10.829Z,16.67
2023-03-19T02:14:37.886Z,18.10
2023-03-19T02:17:06.903Z,15.30
2023-03-19T02:19:51.319Z,15.13
2023-03-19T02:22:22.290Z,18.23
2023-03-19T02:25:02.587Z,16.42
2023-03-19T02:27:30.077Z,16.63
2023-03-19T02:29:56.935Z,16.02
2023-03-19T02:32:24.442Z,17.98
2023-03-19T02:34:51.734Z,16.50
2023-03-19T02:37:32.847Z,18.15
2023-03-19T02:40:04.708Z,17.20
2023-03-19T02:42:31.618Z,19.67
2023-03-19T02:44:59.145Z,16.73
2023-03-19T02:47:26.586Z,15.55
2023-03-19T02:49:53.969Z,18.33
2023-03-19T02:52:21.327Z,17.15
2023-03-19T02:54:48.586Z,17.55
2023-03-19T02:57:15.798Z,19.38
2023-03-19T02:59:42.529Z,18.23
2023-03-19T03:02:10.359Z,15.13
2023-03-19T03:04:37.407Z,14.95
2023-03-19T03:07:06.217Z,20.42
2023-03-19T03:09:33.163Z,19.90
2023-03-19T03:11:59.943Z,17.20
2023-03-19T03:14:27.433Z,18.75
2023-03-19T03:16:54.180Z,18.27
2023-03-19T03:19:21.713Z,19.90
2023-03-19T03:21:48.560Z,16.50
2023-03-19T03:24:15.605Z,16.35
2023-03-19T03:26:42.668Z,18.30
2023-03-19T03:29:09.601Z,17.70
2023-03-19T03:31:36.813Z,19.15
2023-03-19T03:34:04.557Z,19.42
2023-03-19T03:36:31.370Z,22.20
2023-03-19T03:38:58.690Z,18.73
2023-03-19T03:41:25.524Z,24.50
2023-03-19T03:43:52.687Z,19.73
2023-03-19T03:46:19.470Z,20.35
2023-03-19T03:48:49.803Z,17.60
2023-03-19T03:51:17.637Z,17.55
2023-03-19T03:53:44.458Z,17.80
2023-03-19T03:56:12.518Z,22.80
2023-03-19T03:58:39.482Z,18.58
2023-03-19T04:01:07.770Z,19.38
2023-03-19T04:03:34.807Z,17.88
2023-03-19T04:06:01.616Z,18.80
2023-03-19T04:08:28.933Z,17.75
2023-03-19T04:10:55.647Z,18.88
2023-03-19T04:13:22.477Z,19.27
2023-03-19T04:15:49.420Z,20.33
2023-03-19T04:18:16.535Z,18.13
2023-03-19T04:20:43.632Z,17.50
2023-03-19T04:23:10.679Z,20.35
2023-03-19T04:25:41.367Z,18.10
2023-03-19T04:28:09.187Z,24.10
2023-03-19T04:30:36.444Z,19.05
2023-03-19T04:33:04.931Z,22.13
2023-03-19T04:35:32.009Z,18.42
2023-03-19T04:37:59.067Z,22.60
2023-03-19T04:40:26.392Z,18.65
2023-03-19T04:42:53.678Z,20.98
2023-03-19T04:45:32.401Z,16.70
2023-03-19T04:48:00.230Z,18.88
2023-03-19T04:50:28.031Z,18.48
2023-03-19T04:52:55.128Z,18.00
2023-03-19T04:55:23.692Z,20.15
2023-03-19T04:58:05.256Z,20.85
2023-03-19T05:00:35.019Z,23.48
2023-03-19T05:03:02.247Z,20.50
2023-03-19T05:05:31.433Z,21.98
2023-03-19T05:08:00.146Z,20.15
2023-03-19T05:10:27.320Z,17.45
2023-03-19T05:12:54.626Z,18.27
2023-03-19T05:15:22.031Z,18.17
2023-03-19T05:17:59.297Z,20.33
2023-03-19T05:20:31.727Z,20.73
2023-03-19T05:23:05.135Z,18.77
2023-03-19T05:25:39.254Z,21.77
2023-03-19T05:28:08.903Z,20.65
2023-03-19T05:30:36.504Z,18.83
2023-03-19T05:33:08.758Z,17.40
2023-03-19T05:35:40.082Z,21.05
2023-03-19T05:38:29.950Z,19.92
2023-03-19T05:41:07.182Z,17.48
2023-03-19T05:43:53.583Z,22.13
2023-03-19T05:46:37.087Z,20.70
2023-03-19T05:49:04.499Z,23.20
2023-03-19T05:51:32.053Z,19.13
2023-03-19T05:53:59.032Z,18.73
2023-03-19T05:56:46.084Z,16.08
2023-03-19T05:59:45.370Z,17.77
2023-03-19T06:02:30.698Z,17.08
2023-03-19T06:05:13.274Z,20.98
2023-03-19T06:07:40.046Z,18.65
2023-03-19T06:10:13.117Z,18.70
2023-03-19T06:12:40.299Z,18.10
2023-03-19T06:15:35.597Z,18.95
2023-03-19T06:18:29.510Z,16.15
2023-03-19T06:20:56.422Z,16.90
2023-03-19T06:23:25.689Z,15.02
2023-03-19T06:25:53.015Z,19.25
2023-03-19T06:28:22.519Z,17.48
2023-03-19T06:30:49.555Z,19.50
2023-03-19T06:33:35.151Z,17.98
2023-03-19T06:36:01.980Z,16.15
2023-03-19T06:38:31.970Z,17.88
2023-03-19T06:40:59.210Z,17.33
2023-03-19T06:43:26.277Z,18.00
2023-03-19T06:45:53.158Z,17.17
2023-03-19T06:48:20.357Z,17.15
2023-03-19T06:50:47.576Z,15.15
2023-03-19T06:53:17.380Z,16.58
2023-03-19T06:55:47.138Z,16.98
2023-03-19T06:58:13.880Z,15.23
2023-03-19T07:00:41.504Z,16.55
2023-03-19T07:03:09.131Z,16.02
2023-03-19T07:05:36.039Z,15.93
2023-03-19T07:08:03.108Z,15.00
2023-03-19T07:10:29.973Z,15.90
2023-03-19T07:12:56.851Z,15.65
2023-03-19T07:15:23.600Z,16.58
2023-03-19T07:17:50.390Z,17.70
2023-03-19T07:20:17.413Z,15.55
2023-03-19T07:22:44.087Z,15.65
2023-03-19T07:25:10.925Z,17.20
2023-03-19T07:27:37.655Z,16.52
2023-03-19T07:30:04.664Z,18.92
2023-03-19T07:32:31.921Z,16.48
2023-03-19T07:34:59.036Z,15.73
2023-03-19T07:37:25.715Z,16.55
2023-03-19T07:39:52.390Z,16.15
2023-03-19T07:42:19.117Z,15.75
2023-03-19T07:44:45.841Z,15.63
2023-03-19T07:47:27.925Z,16.02
2023-03-19T07:49:55.796Z,16.98
2023-03-19T07:52:22.615Z,15.10
2023-03-19T07:54:50.669Z,15.77
2023-03-19T07:57:17.454Z,17.92
2023-03-19T07:59:44.259Z,14.45
2023-03-19T08:02:12.744Z,16.40
2023-03-19T08:04:39.839Z,15.52
2023-03-19T08:07:12.927Z,15.48
2023-03-19T08:09:40.228Z,15.65
2023-03-19T08:12:08.461Z,15.50
2023-03-19T08:14:35.748Z,14.07
2023-03-19T08:17:02.737Z,16.98
2023-03-19T08:19:29.530Z,15.48
2023-03-19T08:21:57.902Z,14.82
2023-03-19T08:24:24.893Z,14.35
2023-03-19T08:26:51.731Z,16.08
2023-03-19T08:29:22.459Z,17.00
2023-03-19T08:31:49.218Z,13.80
2023-03-19T08:34:16.445Z,15.90
2023-03-19T08:36:43.219Z,18.08
2023-03-19T08:39:10.023Z,15.10
2023-03-19T08:41:36.857Z,15.60
2023-03-19T08:44:03.697Z,15.07
2023-03-19T08:46:32.041Z,13.55
2023-03-19T08:48:58.984Z,13.52
2023-03-19T08:51:26.490Z,15.25
2023-03-19T08:53:53.787Z,14.40
2023-03-19T08:56:20.796Z,15.30
2023-03-19T08:58:47.566Z,12.93
2023-03-19T09:01:15.519Z,14.57
2023-03-19T09:03:43.860Z,14.40
2023-03-19T09:06:14.432Z,14.25
2023-03-19T09:08:42.207Z,14.80
2023-03-19T09:11:11.107Z,18.20
2023-03-19T09:13:38.201Z,15.13
2023-03-19T09:16:05.927Z,12.98
2023-03-19T09:18:33.619Z,11.85
2023-03-19T09:21:01.096Z,13.45
2023-03-19T09:23:28.475Z,12.82
2023-03-19T09:25:55.525Z,13.23
2023-03-19T09:28:22.425Z,16.90
2023-03-19T09:30:51.550Z,15.10
2023-03-19T09:33:20.469Z,16.20
2023-03-19T09:35:53.897Z,14.27
2023-03-19T09:38:22.513Z,14.80
2023-03-19T09:41:06.370Z,13.13
2023-03-19T09:43:33.235Z,12.63
2023-03-19T09:46:04.857Z,14.80
2023-03-19T09:48:38.538Z,15.40
2023-03-19T09:51:12.771Z,13.90
2023-03-19T09:53:45.676Z,13.55
2023-03-19T09:56:16.562Z,13.13
2023-03-19T09:58:43.990Z,12.27
2023-03-19T10:01:25.955Z,13.02
2023-03-19T10:04:30.023Z,12.88
2023-03-19T10:09:43.172Z,11.80
2023-03-19T10:12:46.895Z,14.65
2023-03-19T10:15:18.522Z,12.98
2023-03-19T10:17:53.639Z,12.65
2023-03-19T10:20:44.527Z,13.52
2023-03-19T10:23:24.110Z,12.80
2023-03-19T10:25:54.098Z,14.13
2023-03-19T10:28:21.765Z,13.40
2023-03-19T10:31:15.077Z,14.43
2023-03-19T10:34:13.645Z,12.38
2023-03-19T10:36:40.429Z,13.07
2023-03-19T10:39:08.081Z,16.00
2023-03-19T10:41:47.998Z,11.80
2023-03-19T10:44:31.666Z,13.30
2023-03-19T10:47:00.012Z,10.70
2023-03-19T10:49:26.770Z,10.75
2023-03-19T10:51:56.685Z,13.18
2023-03-19T10:54:25.987Z,13.00
2023-03-19T10:56:57.398Z,11.85
2023-03-19T10:59:32.118Z,12.93
2023-03-19T11:02:02.461Z,12.20
2023-03-19T11:04:30.001Z,11.25
2023-03-19T11:07:02.671Z,11.93
2023-03-19T11:09:38.094Z,10.43
2023-03-19T11:12:25.979Z,12.77
2023-03-19T11:14:56.540Z,12.63
2023-03-19T11:17:49.557Z,19.02
2023-03-19T11:20:24.127Z,10.70
2023-03-19T11:22:53.131Z,11.93
2023-03-19T11:25:40.736Z,9.93
2023-03-19T11:28:12.224Z,11.07
2023-03-19T11:31:03.969Z,14.82
2023-03-19T11:34:26.916Z,11.57
2023-03-19T11:37:02.212Z,12.48
2023-03-19T11:39:43.215Z,11.43
2023-03-19T11:42:45.424Z,12.98
2023-03-19T11:45:29.637Z,12.38
2023-03-19T11:48:13.679Z,13.40
2023-03-19T11:50:43.214Z,14.88
2023-03-19T11:53:18.788Z,11.30
2023-03-19T11:55:57.432Z,12.73
2023-03-19T11:58:34.467Z,11.38
2023-03-19T12:01:23.279Z,12.52
2023-03-19T12:04:26.530Z,11.43
2023-03-19T12:07:18.151Z,12.25
2023-03-19T12:10:04.397Z,12.57
2023-03-19T12:12:43.502Z,11.60
2023-03-19T12:15:26.953Z,12.00
2023-03-19T12:21:11.697Z,9.55
2023-03-19T12:24:02.787Z,13.27
2023-03-19T12:26:59.244Z,10.98
2023-03-19T12:30:04.283Z,14.25
2023-03-19T12:33:18.409Z,10.73
2023-03-19T12:38:27.177Z,11.40
2023-03-19T12:41:20.607Z,9.95
2023-03-19T12:43:55.806Z,10.18
2023-03-19T12:46:26.550Z,11.07
2023-03-19T12:48:57.143Z,10.25
2023-03-19T12:51:35.144Z,11.05
2023-03-19T12:54:20.290Z,11.40
2023-03-19T12:57:08.971Z,12.57
2023-03-19T12:59:54.727Z,11.45
2023-03-19T13:02:50.446Z,11.20
2023-03-19T13:05:33.204Z,11.05
2023-03-19T13:08:12.078Z,9.90
2023-03-19T13:10:39.547Z,10.20
2023-03-19T13:13:29.190Z,11.32
2023-03-19T13:16:00.348Z,15.43
2023-03-19T13:18:29.888Z,11.65
2023-03-19T13:21:22.440Z,12.18
2023-03-19T13:24:00.877Z,10.88
2023-03-19T13:26:28.298Z,13.15
2023-03-19T13:29:02.158Z,11.02
2023-03-19T13:31:33.389Z,12.88
2023-03-19T13:34:16.887Z,11.88
2023-03-19T13:36:51.735Z,11.23
2023-03-19T13:39:28.569Z,12.93
2023-03-19T13:41:59.144Z,11.48
2023-03-19T13:44:47.894Z,10.13
2023-03-19T13:47:26.729Z,10.45
2023-03-19T13:50:24.519Z,10.57
2023-03-19T13:52:54.067Z,13.63
2023-03-19T13:55:26.934Z,10.13
2023-03-19T13:58:12.314Z,12.20
2023-03-19T14:00:47.669Z,11.98
2023-03-19T14:03:26.612Z,12.85
2023-03-19T14:05:57.788Z,11.98
2023-03-19T14:08:32.775Z,11.45
2023-03-19T14:11:01.271Z,13.90
2023-03-19T14:13:31.746Z,11.90
2023-03-19T14:16:24.555Z,11.05
2023-03-19T14:18:51.302Z,9.47
2023-03-19T14:21:34.020Z,12.52
2023-03-19T14:24:55.196Z,10.15
2023-03-19T14:27:27.629Z,11.90
2023-03-19T14:29:55.399Z,10.73
2023-03-19T14:32:28.455Z,12.48
2023-03-19T14:34:56.028Z,9.57
2023-03-19T14:37:34.586Z,13.15
2023-03-19T14:40:13.295Z,10.50
2023-03-19T14:43:08.252Z,11.50
2023-03-19T14:45:53.232Z,12.63
2023-03-19T14:48:28.808Z,12.35
2023-03-19T14:51:14.388Z,12.90
2023-03-19T14:54:18.539Z,11.05
2023-03-19T14:56:48.929Z,11.02
2023-03-19T14:59:16.065Z,13.52
2023-03-19T15:01:49.427Z,11.88
2023-03-19T15:04:20.575Z,12.23
2023-03-19T15:06:57.761Z,14.02
2023-03-19T15:09:35.499Z,10.95
2023-03-19T15:12:37.931Z,12.68
2023-03-19T15:15:16.831Z,9.25
2023-03-19T15:17:51.637Z,14.57
2023-03-19T15:20:25.494Z,11.75
2023-03-19T15:23:25.761Z,12.48
2023-03-19T15:26:01.301Z,14.50
2023-03-19T15:28:49.897Z,11.55
2023-03-19T15:31:41.797Z,13.45
2023-03-19T15:34:22.138Z,11.32
2023-03-19T15:36:57.403Z,12.95
2023-03-19T15:39:27.326Z,10.13
2023-03-19T15:41:55.346Z,12.45
2023-03-19T15:44:30.549Z,14.20
2023-03-19T15:47:01.330Z,10.52
2023-03-19T15:49:39.406Z,13.55
2023-03-19T15:52:10.023Z,14.02
2023-03-19T15:54:37.912Z,12.57
2023-03-19T15:57:08.254Z,9.50
2023-03-19T15:59:35.156Z,10.38
2023-03-19T16:02:20.665Z,12.73
2023-03-19T16:05:18.074Z,11.25
2023-03-19T16:07:43.560Z,11.93
2023-03-19T16:10:30.947Z,11.38
2023-03-19T16:12:58.345Z,14.48
2023-03-19T16:15:40.973Z,16.02
2023-03-19T16:18:17.002Z,12.32
2023-03-19T16:21:04.621Z,20.00
2023-03-19T16:23:41.504Z,17.77
2023-03-19T16:26:44.385Z,11.88
2023-03-19T16:29:36.359Z,12.68
2023-03-19T16:32:27.332Z,11.60
2023-03-19T16:34:55.637Z,11.55
2023-03-19T16:37:40.152Z,15.75
2023-03-19T16:40:13.038Z,13.48
2023-03-19T16:45:26.684Z,10.95
2023-03-19T16:47:55.624Z,14.27
2023-03-19T16:50:29.773Z,14.60
2023-03-19T16:52:57.703Z,10.55
2023-03-19T16:55:26.544Z,12.18
2023-03-19T16:58:05.857Z,12.45
2023-03-19T17:00:36.067Z,16.02
2023-03-19T17:03:02.976Z,13.15
2023-03-19T17:05:33.857Z,14.27
2023-03-19T17:08:01.299Z,12.75
2023-03-19T17:10:30.173Z,16.02
2023-03-19T17:12:57.793Z,17.40
2023-03-19T17:15:35.378Z,14.65
2023-03-19T17:18:04.836Z,13.55
2023-03-19T17:20:36.076Z,14.38
2023-03-19T17:23:09.511Z,16.25
2023-03-19T17:25:36.613Z,15.05
2023-03-19T17:28:03.559Z,17.27
2023-03-19T17:30:30.320Z,17.02
2023-03-19T17:32:57.662Z,14.00
2023-03-19T17:35:25.275Z,20.25
2023-03-19T17:37:52.713Z,16.52
2023-03-19T17:40:21.486Z,20.23
2023-03-19T17:42:49.012Z,17.38
2023-03-19T17:45:29.870Z,17.08
2023-03-19T17:47:58.262Z,20.75
2023-03-19T17:50:31.423Z,18.38
2023-03-19T17:52:58.978Z,19.35
2023-03-19T17:55:28.420Z,19.60
2023-03-19T17:57:56.103Z,18.40
2023-03-19T18:00:24.658Z,17.27
2023-03-19T18:02:53.956Z,14.85
2023-03-19T18:05:25.536Z,16.45
2023-03-19T18:07:55.027Z,19.15
2023-03-19T18:10:27.550Z,18.40
2023-03-19T18:12:54.844Z,17.47
2023-03-19T18:15:22.756Z,19.20
2023-03-19T18:17:52.256Z,21.00
2023-03-19T18:20:22.731Z,21.90
2023-03-19T18:22:50.469Z,19.25
2023-03-19T18:25:19.925Z,17.70
2023-03-19T18:27:46.969Z,21.65
2023-03-19T18:30:16.624Z,20.23
2023-03-19T18:32:47.251Z,19.83
2023-03-19T18:35:19.951Z,21.85
2023-03-19T18:37:52.244Z,21.52
2023-03-19T18:40:21.738Z,19.77
2023-03-19T18:42:49.520Z,25.42
2023-03-19T18:45:18.101Z,27.77
2023-03-19T18:47:47.016Z,22.30
2023-03-19T18:50:25.757Z,25.77
2023-03-19T18:52:53.925Z,32.72
2023-03-19T18:55:24.028Z,37.42
2023-03-19T18:57:57.159Z,48.00
2023-03-19T19:00:51.120Z,38.17
2023-03-19T19:03:20.860Z,36.17
2023-03-19T19:05:47.648Z,38.22
2023-03-19T19:08:17.373Z,46.60
2023-03-19T19:10:48.678Z,43.75
2023-03-19T19:13:32.011Z,38.03
2023-03-19T19:15:59.043Z,32.83
2023-03-19T19:18:30.681Z,41.00
2023-03-19T19:20:58.608Z,33.53
2023-03-19T19:23:27.461Z,30.08
2023-03-19T19:25:57.527Z,28.45
2023-03-19T19:28:27.776Z,36.05
2023-03-19T19:30:57.677Z,30.95
2023-03-19T19:33:34.839Z,54.67
2023-03-19T19:36:03.081Z,82.10
2023-03-19T19:38:30.421Z,52.63
2023-03-19T19:41:00.226Z,29.95
2023-03-19T19:43:31.087Z,27.88
2023-03-19T19:45:58.876Z,29.15
2023-03-19T19:48:27.915Z,26.35
2023-03-19T19:50:56.262Z,23.92
2023-03-19T19:53:28.793Z,25.30
2023-03-19T19:55:55.547Z,22.05
2023-03-19T19:58:27.116Z,26.95
2023-03-19T20:01:03.507Z,21.50
2023-03-19T20:03:33.657Z,24.67
2023-03-19T20:06:01.611Z,23.88
2023-03-19T20:08:28.912Z,25.80
2023-03-19T20:10:56.589Z,29.40
2023-03-19T20:13:30.052Z,28.73
2023-03-19T20:15:58.700Z,26.60
2023-03-19T20:18:30.755Z,25.95
2023-03-19T20:20:58.190Z,38.05
2023-03-19T20:23:25.718Z,34.90
2023-03-19T20:25:52.797Z,29.88
2023-03-19T20:28:34.159Z,24.95
2023-03-19T20:31:02.601Z,26.88
2023-03-19T20:33:31.398Z,25.02
2023-03-19T20:35:58.732Z,27.17
2023-03-19T20:38:27.426Z,26.73
2023-03-19T20:40:56.974Z,24.02
2023-03-19T20:43:29.020Z,22.33
2023-03-19T20:45:57.695Z,23.63
2023-03-19T20:48:25.791Z,21.88
2023-03-19T20:50:52.813Z,20.10
2023-03-19T20:53:19.635Z,23.08
2023-03-19T20:55:47.917Z,21.67
2023-03-19T20:58:27.670Z,23.25
2023-03-19T21:00:56.468Z,22.92
2023-03-19T21:03:25.528Z,22.48
2023-03-19T21:06:06.741Z,21.75
2023-03-19T21:08:44.676Z,21.17
2023-03-19T21:11:20.395Z,21.40
2023-03-19T21:13:49.245Z,23.38
2023-03-19T21:16:21.922Z,20.13
2023-03-19T21:18:49.054Z,23.67
2023-03-19T21:21:18.649Z,23.08
2023-03-19T21:23:58.149Z,17.75
2023-03-19T21:26:26.087Z,22.85
2023-03-19T21:28:58.935Z,18.38
2023-03-19T21:31:26.312Z,24.42
2023-03-19T21:33:53.110Z,18.92
2023-03-19T21:36:19.936Z,21.45
2023-03-19T21:38:46.789Z,22.35
2023-03-19T21:41:24.928Z,25.50
2023-03-19T21:43:57.391Z,21.15
2023-03-19T21:46:26.494Z,20.73
2023-03-19T21:48:57.806Z,19.88
2023-03-19T21:51:26.327Z,20.27
2023-03-19T21:53:53.332Z,23.10
2023-03-19T21:56:32.537Z,18.42
2023-03-19T21:59:02.265Z,18.15
2023-03-19T22:01:29.277Z,18.38
2023-03-19T22:03:58.521Z,22.15
2023-03-19T22:06:25.996Z,18.30
2023-03-19T22:08:54.205Z,18.98
2023-03-19T22:11:26.520Z,23.77
2023-03-19T22:13:53.686Z,24.48
2023-03-19T22:16:24.017Z,22.58
2023-03-19T22:18:52.325Z,24.55
2023-03-19T22:21:21.426Z,26.88
2023-03-19T22:23:48.982Z,29.85
2023-03-19T22:26:30.914Z,26.75
2023-03-19T22:29:02.002Z,29.45
2023-03-19T22:31:33.412Z,31.00
2023-03-19T22:34:00.543Z,28.70
2023-03-19T22:36:27.298Z,26.02
2023-03-19T22:38:54.111Z,25.95
2023-03-19T22:41:26.951Z,26.88
2023-03-19T22:43:54.309Z,28.73
2023-03-19T22:46:21.250Z,29.05
2023-03-19T22:48:52.524Z,23.58
2023-03-19T22:51:23.898Z,31.83
2023-03-19T22:53:51.463Z,32.58
2023-03-19T22:56:19.859Z,28.27
2023-03-19T22:58:47.805Z,31.27
2023-03-19T23:01:31.690Z,31.33
2023-03-19T23:04:11.893Z,33.97
2023-03-19T23:06:38.678Z,28.83
2023-03-19T23:09:05.643Z,28.73
2023-03-19T23:11:32.624Z,30.02
2023-03-19T23:13:59.684Z,27.73
2023-03-19T23:16:26.521Z,28.20
2023-03-19T23:21:21.388Z,28.95
2023-03-19T23:23:48.207Z,26.63
2023-03-19T23:26:35.521Z,25.05
2023-03-19T23:29:06.942Z,24.95
2023-03-19T23:31:34.450Z,27.50
2023-03-19T23:34:01.675Z,26.92
2023-03-19T23:36:28.409Z,27.83
2023-03-19T23:38:55.071Z,27.35
2023-03-19T23:41:28.465Z,27.05
2023-03-19T23:43:56.553Z,29.05
2023-03-19T23:46:23.292Z,31.75
2023-03-19T23:48:50.068Z,33.20
2023-03-19T23:51:17.752Z,31.23
2023-03-19T23:53:45.020Z,32.17
2023-03-19T23:56:22.017Z,29.05
2023-03-19T23:58:51.175Z,31.13
